sensor_id;sensor_type;location;lat;lon;timestamp;temperature;humidity
935;DHT22;454;53.254;10.400;2023-07-08T04:00:15;15.80;99.90
935;DHT22;454;53.254;10.400;2023-07-08T04:02:42;15.90;99.90
935;DHT22;454;53.254;10.400;2023-07-08T04:05:13;15.90;99.90
935;DHT22;454;53.254;10.400;2023-07-08T04:07:40;15.90;99.90
935;DHT22;454;53.254;10.400;2023-07-08T04:10:08;15.90;99.90
935;DHT22;454;53.254;10.400;2023-07-08T04:12:35;16.00;99.90
935;DHT22;454;53.254;10.400;2023-07-08T04:15:03;16.00;99.90
935;DHT22;454;53.254;10.400;2023-07-08T04:17:31;16.10;99.90
935;DHT22;454;53.254;10.400;2023-07-08T04:19:58;16.10;99.90
935;DHT22;454;53.254;10.400;2023-07-08T04:22:26;16.20;99.90
935;DHT22;454;53.254;10.400;2023-07-08T04:24:53;16.20;99.90
935;DHT22;454;53.254;10.400;2023-07-08T04:27:21;16.30;99.90
935;DHT22;454;53.254;10.400;2023-07-08T04:29:48;16.60;99.90
935;DHT22;454;53.254;10.400;2023-07-08T04:32:15;17.30;99.90
935;DHT22;454;53.254;10.400;2023-07-08T04:34:43;18.00;99.90
935;DHT22;454;53.254;10.400;2023-07-08T04:37:11;18.80;99.90
935;DHT22;454;53.254;10.400;2023-07-08T04:39:38;19.40;99.90
935;DHT22;454;53.254;10.400;2023-07-08T04:42:05;20.00;99.90
935;DHT22;454;53.254;10.400;2023-07-08T04:44:32;20.50;99.90
935;DHT22;454;53.254;10.400;2023-07-08T04:46:58;20.90;99.90
935;DHT22;454;53.254;10.400;2023-07-08T04:49:25;21.40;99.90
935;DHT22;454;53.254;10.400;2023-07-08T04:51:58;21.50;99.90
935;DHT22;454;53.254;10.400;2023-07-08T04:54:27;21.90;99.90
935;DHT22;454;53.254;10.400;2023-07-08T04:56:54;22.30;99.90
935;DHT22;454;53.254;10.400;2023-07-08T04:59:22;22.70;99.90
935;DHT22;454;53.254;10.400;2023-07-08T05:01:49;23.00;99.90
935;DHT22;454;53.254;10.400;2023-07-08T05:04:19;23.40;99.90
935;DHT22;454;53.254;10.400;2023-07-08T05:06:46;23.60;99.90
935;DHT22;454;53.254;10.400;2023-07-08T05:09:15;23.90;99.90
935;DHT22;454;53.254;10.400;2023-07-08T05:11:42;24.10;99.90
935;DHT22;454;53.254;10.400;2023-07-08T05:14:10;24.50;99.90
935;DHT22;454;53.254;10.400;2023-07-08T05:16:37;24.70;99.90
935;DHT22;454;53.254;10.400;2023-07-08T05:19:05;25.00;99.90
935;DHT22;454;53.254;10.400;2023-07-08T05:21:31;25.00;99.90
935;DHT22;454;53.254;10.400;2023-07-08T05:24:00;24.80;99.90
935;DHT22;454;53.254;10.400;2023-07-08T05:26:28;25.20;99.90
935;DHT22;454;53.254;10.400;2023-07-08T05:28:55;25.40;99.90
935;DHT22;454;53.254;10.400;2023-07-08T05:31:22;25.70;99.90
935;DHT22;454;53.254;10.400;2023-07-08T05:33:48;25.90;99.90
935;DHT22;454;53.254;10.400;2023-07-08T05:36:15;26.40;99.90
935;DHT22;454;53.254;10.400;2023-07-08T05:38:42;26.10;99.90
935;DHT22;454;53.254;10.400;2023-07-08T05:41:09;26.50;99.90
935;DHT22;454;53.254;10.400;2023-07-08T05:43:37;26.60;99.90
935;DHT22;454;53.254;10.400;2023-07-08T05:46:03;26.90;99.90
935;DHT22;454;53.254;10.400;2023-07-08T05:48:30;27.00;99.90
935;DHT22;454;53.254;10.400;2023-07-08T05:50:57;27.10;99.90
935;DHT22;454;53.254;10.400;2023-07-08T05:53:23;27.20;99.90
935;DHT22;454;53.254;10.400;2023-07-08T05:55:50;27.10;99.90
935;DHT22;454;53.254;10.400;2023-07-08T05:58:17;26.80;99.90
935;DHT22;454;53.254;10.400;2023-07-08T06:00:45;26.00;99.90
935;DHT22;454;53.254;10.400;2023-07-08T06:03:12;25.60;99.90
935;DHT22;454;53.254;10.400;2023-07-08T06:05:38;25.60;99.90
935;DHT22;454;53.254;10.400;2023-07-08T06:08:06;25.90;99.90
935;DHT22;454;53.254;10.400;2023-07-08T06:10:33;26.30;99.90
935;DHT22;454;53.254;10.400;2023-07-08T06:13:00;26.90;99.90
935;DHT22;454;53.254;10.400;2023-07-08T06:15:27;27.30;99.90
935;DHT22;454;53.254;10.400;2023-07-08T06:17:55;27.70;99.90
935;DHT22;454;53.254;10.400;2023-07-08T06:20:26;27.90;99.90
935;DHT22;454;53.254;10.400;2023-07-08T06:22:52;28.20;99.90
935;DHT22;454;53.254;10.400;2023-07-08T06:25:19;28.00;99.90
935;DHT22;454;53.254;10.400;2023-07-08T06:27:46;28.10;99.90
935;DHT22;454;53.254;10.400;2023-07-08T06:30:13;28.40;99.90
935;DHT22;454;53.254;10.400;2023-07-08T06:32:39;28.60;99.90
935;DHT22;454;53.254;10.400;2023-07-08T06:35:08;29.00;99.90
935;DHT22;454;53.254;10.400;2023-07-08T06:37:35;29.00;99.90
935;DHT22;454;53.254;10.400;2023-07-08T06:40:02;29.10;99.90
935;DHT22;454;53.254;10.400;2023-07-08T06:42:28;29.20;99.90
935;DHT22;454;53.254;10.400;2023-07-08T06:44:56;29.30;99.90
935;DHT22;454;53.254;10.400;2023-07-08T06:47:23;29.50;99.90
935;DHT22;454;53.254;10.400;2023-07-08T06:49:49;29.80;99.90
935;DHT22;454;53.254;10.400;2023-07-08T06:52:17;30.10;99.90
935;DHT22;454;53.254;10.400;2023-07-08T06:54:44;30.30;99.90
935;DHT22;454;53.254;10.400;2023-07-08T06:57:11;30.50;99.90
935;DHT22;454;53.254;10.400;2023-07-08T06:59:38;30.80;99.60
935;DHT22;454;53.254;10.400;2023-07-08T07:02:05;31.10;99.20
935;DHT22;454;53.254;10.400;2023-07-08T07:04:32;31.00;98.90
935;DHT22;454;53.254;10.400;2023-07-08T07:06:58;31.00;98.50
935;DHT22;454;53.254;10.400;2023-07-08T07:09:26;31.30;98.60
935;DHT22;454;53.254;10.400;2023-07-08T07:11:53;31.20;98.20
935;DHT22;454;53.254;10.400;2023-07-08T07:14:20;31.00;98.30
935;DHT22;454;53.254;10.400;2023-07-08T07:16:47;30.80;98.30
935;DHT22;454;53.254;10.400;2023-07-08T07:19:13;30.30;99.10
935;DHT22;454;53.254;10.400;2023-07-08T07:21:40;30.60;99.40
935;DHT22;454;53.254;10.400;2023-07-08T07:24:07;30.90;98.70
935;DHT22;454;53.254;10.400;2023-07-08T07:26:35;31.10;98.30
935;DHT22;454;53.254;10.400;2023-07-08T07:29:02;31.10;98.20
935;DHT22;454;53.254;10.400;2023-07-08T07:31:29;31.50;98.20
935;DHT22;454;53.254;10.400;2023-07-08T07:33:58;31.60;98.20
935;DHT22;454;53.254;10.400;2023-07-08T07:36:25;31.80;97.50
935;DHT22;454;53.254;10.400;2023-07-08T07:38:51;31.80;97.30
935;DHT22;454;53.254;10.400;2023-07-08T07:41:18;31.40;97.80
935;DHT22;454;53.254;10.400;2023-07-08T07:43:46;31.50;97.60
935;DHT22;454;53.254;10.400;2023-07-08T07:46:13;31.70;97.40
935;DHT22;454;53.254;10.400;2023-07-08T07:48:40;31.60;97.40
935;DHT22;454;53.254;10.400;2023-07-08T07:51:08;31.70;97.10
935;DHT22;454;53.254;10.400;2023-07-08T07:53:36;31.60;97.20
935;DHT22;454;53.254;10.400;2023-07-08T07:56:03;31.30;97.50
935;DHT22;454;53.254;10.400;2023-07-08T07:58:31;31.50;97.50
935;DHT22;454;53.254;10.400;2023-07-08T08:00:59;31.50;97.50
935;DHT22;454;53.254;10.400;2023-07-08T08:03:27;31.70;97.10
935;DHT22;454;53.254;10.400;2023-07-08T08:05:53;31.80;97.30
935;DHT22;454;53.254;10.400;2023-07-08T08:08:20;32.00;96.80
935;DHT22;454;53.254;10.400;2023-07-08T08:10:48;31.90;96.90
935;DHT22;454;53.254;10.400;2023-07-08T08:13:15;31.80;96.80
935;DHT22;454;53.254;10.400;2023-07-08T08:15:41;31.80;96.70
935;DHT22;454;53.254;10.400;2023-07-08T08:18:10;31.80;96.40
935;DHT22;454;53.254;10.400;2023-07-08T08:20:36;31.70;96.80
935;DHT22;454;53.254;10.400;2023-07-08T08:23:05;31.60;96.80
935;DHT22;454;53.254;10.400;2023-07-08T08:25:32;31.10;97.30
935;DHT22;454;53.254;10.400;2023-07-08T08:27:58;31.30;97.50
935;DHT22;454;53.254;10.400;2023-07-08T08:30:25;31.60;97.00
935;DHT22;454;53.254;10.400;2023-07-08T08:32:52;31.30;96.90
935;DHT22;454;53.254;10.400;2023-07-08T08:35:20;31.00;97.50
935;DHT22;454;53.254;10.400;2023-07-08T08:37:47;30.30;98.20
935;DHT22;454;53.254;10.400;2023-07-08T08:40:15;30.60;98.00
935;DHT22;454;53.254;10.400;2023-07-08T08:42:44;30.80;97.80
935;DHT22;454;53.254;10.400;2023-07-08T08:45:19;30.90;97.80
935;DHT22;454;53.254;10.400;2023-07-08T08:47:49;30.50;98.50
935;DHT22;454;53.254;10.400;2023-07-08T08:50:28;30.70;98.30
935;DHT22;454;53.254;10.400;2023-07-08T08:52:56;31.00;97.90
935;DHT22;454;53.254;10.400;2023-07-08T08:55:23;30.90;97.40
935;DHT22;454;53.254;10.400;2023-07-08T08:57:57;30.80;97.40
935;DHT22;454;53.254;10.400;2023-07-08T09:00:30;30.90;97.80
935;DHT22;454;53.254;10.400;2023-07-08T09:03:01;31.00;97.40
935;DHT22;454;53.254;10.400;2023-07-08T09:05:31;30.90;97.60
935;DHT22;454;53.254;10.400;2023-07-08T09:08:04;30.60;97.80
935;DHT22;454;53.254;10.400;2023-07-08T09:10:40;30.40;97.90
935;DHT22;454;53.254;10.400;2023-07-08T09:13:14;30.00;98.80
935;DHT22;454;53.254;10.400;2023-07-08T09:15:42;30.00;99.20
935;DHT22;454;53.254;10.400;2023-07-08T09:18:17;29.90;98.80
935;DHT22;454;53.254;10.400;2023-07-08T09:20:46;30.10;98.70
935;DHT22;454;53.254;10.400;2023-07-08T09:23:18;30.00;98.10
935;DHT22;454;53.254;10.400;2023-07-08T09:25:51;30.00;98.30
935;DHT22;454;53.254;10.400;2023-07-08T09:28:19;29.90;99.10
935;DHT22;454;53.254;10.400;2023-07-08T09:30:48;29.70;99.20
935;DHT22;454;53.254;10.400;2023-07-08T09:33:15;29.90;99.20
935;DHT22;454;53.254;10.400;2023-07-08T09:35:43;29.90;98.10
935;DHT22;454;53.254;10.400;2023-07-08T09:38:15;29.80;98.20
935;DHT22;454;53.254;10.400;2023-07-08T09:40:47;29.50;98.60
935;DHT22;454;53.254;10.400;2023-07-08T09:43:20;29.60;98.10
935;DHT22;454;53.254;10.400;2023-07-08T09:45:50;29.60;98.50
935;DHT22;454;53.254;10.400;2023-07-08T09:48:19;29.30;98.90
935;DHT22;454;53.254;10.400;2023-07-08T09:50:49;29.20;99.50
935;DHT22;454;53.254;10.400;2023-07-08T09:53:18;29.30;98.90
935;DHT22;454;53.254;10.400;2023-07-08T09:55:46;29.30;97.90
935;DHT22;454;53.254;10.400;2023-07-08T09:58:18;29.20;98.10
935;DHT22;454;53.254;10.400;2023-07-08T10:00:51;29.00;98.20
935;DHT22;454;53.254;10.400;2023-07-08T10:03:21;29.20;98.10
935;DHT22;454;53.254;10.400;2023-07-08T10:05:49;29.10;97.60
935;DHT22;454;53.254;10.400;2023-07-08T10:08:19;29.10;97.00
935;DHT22;454;53.254;10.400;2023-07-08T10:10:48;29.10;96.40
935;DHT22;454;53.254;10.400;2023-07-08T10:13:21;29.00;97.40
935;DHT22;454;53.254;10.400;2023-07-08T10:15:54;29.20;97.40
935;DHT22;454;53.254;10.400;2023-07-08T10:18:26;29.20;97.30
935;DHT22;454;53.254;10.400;2023-07-08T10:20:57;29.20;97.30
935;DHT22;454;53.254;10.400;2023-07-08T10:23:35;29.10;97.80
935;DHT22;454;53.254;10.400;2023-07-08T10:26:11;29.20;97.60
935;DHT22;454;53.254;10.400;2023-07-08T10:28:45;29.20;96.70
935;DHT22;454;53.254;10.400;2023-07-08T10:31:23;29.40;97.30
935;DHT22;454;53.254;10.400;2023-07-08T10:34:06;29.40;97.20
935;DHT22;454;53.254;10.400;2023-07-08T10:36:43;29.40;97.20
935;DHT22;454;53.254;10.400;2023-07-08T10:39:27;29.40;97.50
935;DHT22;454;53.254;10.400;2023-07-08T10:42:03;29.40;96.20
935;DHT22;454;53.254;10.400;2023-07-08T10:44:38;29.40;96.30
935;DHT22;454;53.254;10.400;2023-07-08T10:47:20;29.50;95.60
935;DHT22;454;53.254;10.400;2023-07-08T10:49:59;29.60;95.00
935;DHT22;454;53.254;10.400;2023-07-08T10:52:41;29.60;95.80
935;DHT22;454;53.254;10.400;2023-07-08T10:55:26;29.60;96.30
935;DHT22;454;53.254;10.400;2023-07-08T11:01:09;29.60;94.50
935;DHT22;454;53.254;10.400;2023-07-08T11:03:59;29.70;95.00
935;DHT22;454;53.254;10.400;2023-07-08T11:06:40;29.70;94.30
935;DHT22;454;53.254;10.400;2023-07-08T11:09:11;29.70;93.80
935;DHT22;454;53.254;10.400;2023-07-08T11:11:48;29.80;94.00
935;DHT22;454;53.254;10.400;2023-07-08T11:14:18;29.90;93.60
935;DHT22;454;53.254;10.400;2023-07-08T11:16:52;29.90;93.30
935;DHT22;454;53.254;10.400;2023-07-08T11:19:26;29.90;93.90
935;DHT22;454;53.254;10.400;2023-07-08T11:21:55;29.90;94.50
935;DHT22;454;53.254;10.400;2023-07-08T11:24:30;30.10;94.70
935;DHT22;454;53.254;10.400;2023-07-08T11:27:05;30.20;94.40
935;DHT22;454;53.254;10.400;2023-07-08T11:29:46;30.20;93.30
935;DHT22;454;53.254;10.400;2023-07-08T11:32:19;30.10;93.30
935;DHT22;454;53.254;10.400;2023-07-08T11:34:49;30.00;93.60
935;DHT22;454;53.254;10.400;2023-07-08T11:37:17;29.90;93.40
935;DHT22;454;53.254;10.400;2023-07-08T11:39:47;29.90;93.50
935;DHT22;454;53.254;10.400;2023-07-08T11:42:23;29.90;93.40
935;DHT22;454;53.254;10.400;2023-07-08T11:44:54;30.20;93.40
935;DHT22;454;53.254;10.400;2023-07-08T11:47:26;30.20;93.00
935;DHT22;454;53.254;10.400;2023-07-08T11:49:58;30.20;92.50
935;DHT22;454;53.254;10.400;2023-07-08T11:52:24;30.30;92.70
935;DHT22;454;53.254;10.400;2023-07-08T11:55:03;30.40;93.00
935;DHT22;454;53.254;10.400;2023-07-08T11:57:42;30.40;93.10
935;DHT22;454;53.254;10.400;2023-07-08T12:00:16;30.40;92.70
935;DHT22;454;53.254;10.400;2023-07-08T12:02:49;30.50;93.20
935;DHT22;454;53.254;10.400;2023-07-08T12:05:17;30.60;93.30
935;DHT22;454;53.254;10.400;2023-07-08T12:07:46;30.50;93.50
935;DHT22;454;53.254;10.400;2023-07-08T12:10:17;30.60;93.40
935;DHT22;454;53.254;10.400;2023-07-08T12:12:46;30.60;92.70
935;DHT22;454;53.254;10.400;2023-07-08T12:15:20;30.70;92.20
935;DHT22;454;53.254;10.400;2023-07-08T12:17:49;30.70;93.00
935;DHT22;454;53.254;10.400;2023-07-08T12:20:19;30.90;92.60
935;DHT22;454;53.254;10.400;2023-07-08T12:22:48;30.90;92.50
935;DHT22;454;53.254;10.400;2023-07-08T12:25:17;30.80;92.30
935;DHT22;454;53.254;10.400;2023-07-08T12:27:46;30.80;92.60
935;DHT22;454;53.254;10.400;2023-07-08T12:30:17;30.80;92.80
935;DHT22;454;53.254;10.400;2023-07-08T12:32:44;30.80;92.20
935;DHT22;454;53.254;10.400;2023-07-08T12:35:21;30.90;92.90
935;DHT22;454;53.254;10.400;2023-07-08T12:37:49;30.90;92.00
935;DHT22;454;53.254;10.400;2023-07-08T12:40:17;31.00;92.00
935;DHT22;454;53.254;10.400;2023-07-08T12:42:46;31.10;92.60
935;DHT22;454;53.254;10.400;2023-07-08T12:45:15;31.10;92.40
935;DHT22;454;53.254;10.400;2023-07-08T12:47:43;31.10;92.70
935;DHT22;454;53.254;10.400;2023-07-08T12:50:11;31.20;92.30
935;DHT22;454;53.254;10.400;2023-07-08T12:52:39;31.30;92.40
935;DHT22;454;53.254;10.400;2023-07-08T12:55:08;31.10;91.80
935;DHT22;454;53.254;10.400;2023-07-08T12:57:35;31.10;92.10
935;DHT22;454;53.254;10.400;2023-07-08T13:00:04;31.10;90.90
935;DHT22;454;53.254;10.400;2023-07-08T13:02:32;31.20;90.10
935;DHT22;454;53.254;10.400;2023-07-08T13:05:00;31.20;90.20
935;DHT22;454;53.254;10.400;2023-07-08T13:07:34;31.30;90.50
935;DHT22;454;53.254;10.400;2023-07-08T13:10:03;31.30;89.20
935;DHT22;454;53.254;10.400;2023-07-08T13:12:32;31.30;89.30
935;DHT22;454;53.254;10.400;2023-07-08T13:15:03;31.30;87.60
935;DHT22;454;53.254;10.400;2023-07-08T13:17:32;31.40;88.70
935;DHT22;454;53.254;10.400;2023-07-08T13:20:00;31.20;89.00
935;DHT22;454;53.254;10.400;2023-07-08T13:22:27;31.30;87.60
935;DHT22;454;53.254;10.400;2023-07-08T13:24:59;31.30;89.00
935;DHT22;454;53.254;10.400;2023-07-08T13:27:26;31.30;87.20
935;DHT22;454;53.254;10.400;2023-07-08T13:30:14;31.30;90.10
935;DHT22;454;53.254;10.400;2023-07-08T13:32:42;31.30;88.90
935;DHT22;454;53.254;10.400;2023-07-08T13:35:22;31.40;89.50
935;DHT22;454;53.254;10.400;2023-07-08T13:37:49;31.60;86.80
935;DHT22;454;53.254;10.400;2023-07-08T13:40:16;31.60;85.40
935;DHT22;454;53.254;10.400;2023-07-08T13:42:47;31.50;85.90
935;DHT22;454;53.254;10.400;2023-07-08T13:45:21;31.50;87.00
935;DHT22;454;53.254;10.400;2023-07-08T13:48:02;31.40;88.50
935;DHT22;454;53.254;10.400;2023-07-08T13:50:37;31.60;87.50
935;DHT22;454;53.254;10.400;2023-07-08T13:53:16;31.60;88.00
935;DHT22;454;53.254;10.400;2023-07-08T13:55:43;31.60;89.60
935;DHT22;454;53.254;10.400;2023-07-08T13:58:15;31.70;87.20
935;DHT22;454;53.254;10.400;2023-07-08T14:00:44;31.70;89.50
935;DHT22;454;53.254;10.400;2023-07-08T14:03:11;31.60;90.50
935;DHT22;454;53.254;10.400;2023-07-08T14:05:40;31.60;90.70
935;DHT22;454;53.254;10.400;2023-07-08T14:08:12;31.60;90.10
935;DHT22;454;53.254;10.400;2023-07-08T14:10:40;31.50;90.70
935;DHT22;454;53.254;10.400;2023-07-08T14:13:07;31.60;90.50
935;DHT22;454;53.254;10.400;2023-07-08T14:15:33;31.50;89.20
935;DHT22;454;53.254;10.400;2023-07-08T14:18:02;31.40;89.60
935;DHT22;454;53.254;10.400;2023-07-08T14:20:29;31.50;88.90
935;DHT22;454;53.254;10.400;2023-07-08T14:22:56;31.60;90.30
935;DHT22;454;53.254;10.400;2023-07-08T14:25:23;31.60;89.80
935;DHT22;454;53.254;10.400;2023-07-08T14:27:51;31.70;90.30
935;DHT22;454;53.254;10.400;2023-07-08T14:30:18;31.80;87.80
935;DHT22;454;53.254;10.400;2023-07-08T14:32:47;31.90;88.60
935;DHT22;454;53.254;10.400;2023-07-08T14:35:18;32.20;87.00
935;DHT22;454;53.254;10.400;2023-07-08T14:37:47;32.20;86.50
935;DHT22;454;53.254;10.400;2023-07-08T14:40:23;32.10;86.80
935;DHT22;454;53.254;10.400;2023-07-08T14:42:57;32.10;87.70
935;DHT22;454;53.254;10.400;2023-07-08T14:45:26;32.00;86.00
935;DHT22;454;53.254;10.400;2023-07-08T14:47:53;32.00;85.50
935;DHT22;454;53.254;10.400;2023-07-08T14:50:21;32.10;86.30
935;DHT22;454;53.254;10.400;2023-07-08T14:52:51;32.30;85.90
935;DHT22;454;53.254;10.400;2023-07-08T14:55:17;32.40;85.90
935;DHT22;454;53.254;10.400;2023-07-08T14:57:47;32.40;84.60
935;DHT22;454;53.254;10.400;2023-07-08T15:00:16;32.50;84.80
935;DHT22;454;53.254;10.400;2023-07-08T15:02:45;32.50;84.30
935;DHT22;454;53.254;10.400;2023-07-08T15:05:17;32.70;85.50
935;DHT22;454;53.254;10.400;2023-07-08T15:07:48;32.70;84.30
935;DHT22;454;53.254;10.400;2023-07-08T15:10:16;32.70;83.00
935;DHT22;454;53.254;10.400;2023-07-08T15:12:43;32.70;84.90
935;DHT22;454;53.254;10.400;2023-07-08T15:15:15;32.70;86.60
935;DHT22;454;53.254;10.400;2023-07-08T15:17:43;32.60;87.60
935;DHT22;454;53.254;10.400;2023-07-08T15:20:12;32.70;85.10
935;DHT22;454;53.254;10.400;2023-07-08T15:22:41;32.70;85.40
935;DHT22;454;53.254;10.400;2023-07-08T15:25:11;32.80;84.00
935;DHT22;454;53.254;10.400;2023-07-08T15:27:38;32.70;86.20
935;DHT22;454;53.254;10.400;2023-07-08T15:30:16;32.50;87.70
935;DHT22;454;53.254;10.400;2023-07-08T15:32:44;32.40;87.90
935;DHT22;454;53.254;10.400;2023-07-08T15:35:13;32.40;87.30
935;DHT22;454;53.254;10.400;2023-07-08T15:37:42;32.50;86.70
935;DHT22;454;53.254;10.400;2023-07-08T15:40:13;32.50;87.90
935;DHT22;454;53.254;10.400;2023-07-08T15:42:41;32.60;89.50
935;DHT22;454;53.254;10.400;2023-07-08T15:45:21;32.70;86.80
935;DHT22;454;53.254;10.400;2023-07-08T15:47:49;32.60;86.40
935;DHT22;454;53.254;10.400;2023-07-08T15:50:19;32.40;86.40
935;DHT22;454;53.254;10.400;2023-07-08T15:52:46;32.20;86.90
935;DHT22;454;53.254;10.400;2023-07-08T15:55:17;32.10;87.90
935;DHT22;454;53.254;10.400;2023-07-08T15:57:50;32.10;86.80
935;DHT22;454;53.254;10.400;2023-07-08T16:00:20;31.80;87.00
935;DHT22;454;53.254;10.400;2023-07-08T16:02:50;31.80;87.50
935;DHT22;454;53.254;10.400;2023-07-08T16:05:18;31.60;88.10
935;DHT22;454;53.254;10.400;2023-07-08T16:07:46;31.60;87.90
935;DHT22;454;53.254;10.400;2023-07-08T16:10:14;31.50;87.90
935;DHT22;454;53.254;10.400;2023-07-08T16:12:42;31.50;87.80
935;DHT22;454;53.254;10.400;2023-07-08T16:15:13;31.50;87.50
935;DHT22;454;53.254;10.400;2023-07-08T16:17:41;31.50;88.20
935;DHT22;454;53.254;10.400;2023-07-08T16:20:15;31.60;87.50
935;DHT22;454;53.254;10.400;2023-07-08T16:25:27;31.60;88.50
935;DHT22;454;53.254;10.400;2023-07-08T16:27:55;31.40;87.00
935;DHT22;454;53.254;10.400;2023-07-08T16:30:23;31.20;87.10
935;DHT22;454;53.254;10.400;2023-07-08T16:32:51;31.10;87.80
935;DHT22;454;53.254;10.400;2023-07-08T16:35:20;31.10;87.60
935;DHT22;454;53.254;10.400;2023-07-08T16:37:49;31.10;88.90
935;DHT22;454;53.254;10.400;2023-07-08T16:40:19;31.20;89.00
935;DHT22;454;53.254;10.400;2023-07-08T16:42:51;31.30;88.20
935;DHT22;454;53.254;10.400;2023-07-08T16:45:19;31.30;89.00
935;DHT22;454;53.254;10.400;2023-07-08T16:47:47;31.30;88.60
935;DHT22;454;53.254;10.400;2023-07-08T16:50:15;31.20;88.60
935;DHT22;454;53.254;10.400;2023-07-08T16:52:43;31.10;88.90
935;DHT22;454;53.254;10.400;2023-07-08T16:55:11;30.90;90.00
935;DHT22;454;53.254;10.400;2023-07-08T16:57:38;30.90;88.50
935;DHT22;454;53.254;10.400;2023-07-08T17:00:10;30.90;89.90
935;DHT22;454;53.254;10.400;2023-07-08T17:02:38;30.80;89.80
935;DHT22;454;53.254;10.400;2023-07-08T17:05:17;30.70;89.40
935;DHT22;454;53.254;10.400;2023-07-08T17:07:44;30.70;90.20
935;DHT22;454;53.254;10.400;2023-07-08T17:10:11;30.70;90.00
935;DHT22;454;53.254;10.400;2023-07-08T17:12:38;30.70;90.10
935;DHT22;454;53.254;10.400;2023-07-08T17:15:08;30.70;89.70
935;DHT22;454;53.254;10.400;2023-07-08T17:17:35;30.60;90.00
935;DHT22;454;53.254;10.400;2023-07-08T17:20:14;30.60;90.10
935;DHT22;454;53.254;10.400;2023-07-08T17:22:42;30.60;90.30
935;DHT22;454;53.254;10.400;2023-07-08T17:25:13;30.50;90.20
935;DHT22;454;53.254;10.400;2023-07-08T17:27:39;30.50;90.50
935;DHT22;454;53.254;10.400;2023-07-08T17:30:10;30.50;90.70
935;DHT22;454;53.254;10.400;2023-07-08T17:32:37;30.50;90.60
935;DHT22;454;53.254;10.400;2023-07-08T17:35:04;30.50;90.60
935;DHT22;454;53.254;10.400;2023-07-08T17:37:31;30.30;90.30
935;DHT22;454;53.254;10.400;2023-07-08T17:39:57;30.30;90.60
935;DHT22;454;53.254;10.400;2023-07-08T17:42:24;30.30;90.60
935;DHT22;454;53.254;10.400;2023-07-08T17:44:51;30.20;90.80
935;DHT22;454;53.254;10.400;2023-07-08T17:47:19;30.30;90.90
935;DHT22;454;53.254;10.400;2023-07-08T17:49:46;30.30;91.10
935;DHT22;454;53.254;10.400;2023-07-08T17:52:13;30.20;90.80
935;DHT22;454;53.254;10.400;2023-07-08T17:54:39;30.10;91.00
935;DHT22;454;53.254;10.400;2023-07-08T17:57:08;30.00;91.20
935;DHT22;454;53.254;10.400;2023-07-08T17:59:35;30.00;91.50
935;DHT22;454;53.254;10.400;2023-07-08T18:02:04;29.90;91.60
935;DHT22;454;53.254;10.400;2023-07-08T18:04:37;29.90;91.70
935;DHT22;454;53.254;10.400;2023-07-08T18:07:05;29.70;91.60
935;DHT22;454;53.254;10.400;2023-07-08T18:09:31;29.70;91.70
935;DHT22;454;53.254;10.400;2023-07-08T18:11:58;29.60;91.90
935;DHT22;454;53.254;10.400;2023-07-08T18:14:25;29.50;92.10
935;DHT22;454;53.254;10.400;2023-07-08T18:16:52;29.40;92.10
935;DHT22;454;53.254;10.400;2023-07-08T18:19:20;29.20;92.20
935;DHT22;454;53.254;10.400;2023-07-08T18:21:48;29.20;92.50
935;DHT22;454;53.254;10.400;2023-07-08T18:24:16;29.10;92.70
935;DHT22;454;53.254;10.400;2023-07-08T18:26:43;29.00;92.90
935;DHT22;454;53.254;10.400;2023-07-08T18:29:10;28.90;93.00
935;DHT22;454;53.254;10.400;2023-07-08T18:31:37;28.80;93.20
935;DHT22;454;53.254;10.400;2023-07-08T18:34:05;28.70;93.40
935;DHT22;454;53.254;10.400;2023-07-08T18:36:34;28.70;93.10
935;DHT22;454;53.254;10.400;2023-07-08T18:39:03;28.50;93.30
935;DHT22;454;53.254;10.400;2023-07-08T18:41:36;28.50;93.90
935;DHT22;454;53.254;10.400;2023-07-08T18:44:07;28.30;94.40
935;DHT22;454;53.254;10.400;2023-07-08T18:46:37;28.20;94.80
935;DHT22;454;53.254;10.400;2023-07-08T18:49:06;28.10;95.00
935;DHT22;454;53.254;10.400;2023-07-08T18:51:39;28.00;95.30
935;DHT22;454;53.254;10.400;2023-07-08T18:54:12;27.90;95.50
935;DHT22;454;53.254;10.400;2023-07-08T18:56:40;27.80;95.80
935;DHT22;454;53.254;10.400;2023-07-08T18:59:06;27.70;96.10
935;DHT22;454;53.254;10.400;2023-07-08T19:01:34;27.60;96.60
935;DHT22;454;53.254;10.400;2023-07-08T19:04:05;27.50;97.10
935;DHT22;454;53.254;10.400;2023-07-08T19:06:31;27.40;97.60
935;DHT22;454;53.254;10.400;2023-07-08T19:08:58;27.30;98.00
935;DHT22;454;53.254;10.400;2023-07-08T19:11:28;27.10;98.40
935;DHT22;454;53.254;10.400;2023-07-08T19:13:55;27.00;98.60
935;DHT22;454;53.254;10.400;2023-07-08T19:16:22;26.90;98.90
935;DHT22;454;53.254;10.400;2023-07-08T19:18:49;26.80;99.30
935;DHT22;454;53.254;10.400;2023-07-08T19:21:19;26.70;99.70
935;DHT22;454;53.254;10.400;2023-07-08T19:23:48;26.60;99.90
935;DHT22;454;53.254;10.400;2023-07-08T19:26:22;26.50;99.90
935;DHT22;454;53.254;10.400;2023-07-08T19:28:51;26.40;99.90
935;DHT22;454;53.254;10.400;2023-07-08T19:31:20;26.30;99.90
935;DHT22;454;53.254;10.400;2023-07-08T19:33:48;26.20;99.90
935;DHT22;454;53.254;10.400;2023-07-08T19:36:16;26.10;99.90
935;DHT22;454;53.254;10.400;2023-07-08T19:38:44;26.00;99.90
935;DHT22;454;53.254;10.400;2023-07-08T19:41:11;26.00;99.90
935;DHT22;454;53.254;10.400;2023-07-08T19:43:39;25.90;99.90
935;DHT22;454;53.254;10.400;2023-07-08T19:46:12;25.80;99.90
935;DHT22;454;53.254;10.400;2023-07-08T19:48:39;25.70;99.90
935;DHT22;454;53.254;10.400;2023-07-08T19:51:06;25.60;99.90
935;DHT22;454;53.254;10.400;2023-07-08T19:53:33;25.50;99.90
935;DHT22;454;53.254;10.400;2023-07-08T19:56:01;25.40;99.90
935;DHT22;454;53.254;10.400;2023-07-08T19:58:27;25.30;99.90
935;DHT22;454;53.254;10.400;2023-07-08T20:00:54;25.30;99.90
935;DHT22;454;53.254;10.400;2023-07-08T20:03:22;25.20;99.90
935;DHT22;454;53.254;10.400;2023-07-08T20:05:49;25.10;99.90
935;DHT22;454;53.254;10.400;2023-07-08T20:08:26;25.00;99.90
935;DHT22;454;53.254;10.400;2023-07-08T20:10:55;24.90;99.90
935;DHT22;454;53.254;10.400;2023-07-08T20:13:22;24.90;99.90
935;DHT22;454;53.254;10.400;2023-07-08T20:15:49;24.80;99.90
935;DHT22;454;53.254;10.400;2023-07-08T20:18:27;24.70;99.90
935;DHT22;454;53.254;10.400;2023-07-08T20:20:55;24.70;99.90
935;DHT22;454;53.254;10.400;2023-07-08T20:23:25;24.60;99.90
935;DHT22;454;53.254;10.400;2023-07-08T20:25:53;24.50;99.90
935;DHT22;454;53.254;10.400;2023-07-08T20:28:23;24.50;99.90
935;DHT22;454;53.254;10.400;2023-07-08T20:30:53;24.40;99.90
935;DHT22;454;53.254;10.400;2023-07-08T20:33:21;24.30;99.90
935;DHT22;454;53.254;10.400;2023-07-08T20:35:48;24.20;99.90